createdAt,value
2018-12-05T00:02:21.107Z,90.09
2018-12-05T00:08:24.448Z,90.47
2018-12-05T00:14:29.100Z,90.48
2018-12-05T00:20:32.432Z,90.72
2018-12-05T00:26:35.774Z,92.00
2018-12-05T00:32:39.116Z,91.43
2018-12-05T00:38:42.453Z,90.61
2018-12-05T00:44:45.777Z,90.58
2018-12-05T00:50:49.100Z,91.31
2018-12-05T00:56:52.521Z,90.12
2018-12-05T01:02:55.859Z,91.01
2018-12-05T01:08:59.268Z,90.50
2018-12-05T01:15:02.630Z,90.30
2018-12-05T01:21:05.975Z,89.63
2018-12-05T01:27:09.299Z,89.64
2018-12-05T01:33:12.625Z,89.56
2018-12-05T01:39:15.967Z,89.34
2018-12-05T01:45:19.316Z,89.25
2018-12-05T01:51:22.653Z,90.19
2018-12-05T01:57:25.999Z,90.85
2018-12-05T02:03:29.346Z,90.73
2018-12-05T02:09:32.789Z,89.78
2018-12-05T02:15:36.142Z,90.67
2018-12-05T02:21:39.467Z,89.92
2018-12-05T02:27:42.811Z,90.54
2018-12-05T02:33:46.151Z,90.26
2018-12-05T02:39:49.498Z,89.73
2018-12-05T02:45:52.872Z,90.65
2018-12-05T02:51:56.202Z,89.80
2018-12-05T02:57:59.552Z,90.05
2018-12-05T03:04:02.879Z,90.06
2018-12-05T03:10:19.387Z,90.70
2018-12-05T03:16:22.715Z,90.48
2018-12-05T03:22:26.073Z,90.16
2018-12-05T03:28:29.428Z,89.68
2018-12-05T03:34:32.775Z,90.05
2018-12-05T03:40:36.506Z,90.59
2018-12-05T03:46:39.838Z,90.25
2018-12-05T03:52:43.192Z,90.57
2018-12-05T03:58:46.543Z,90.68
2018-12-05T04:04:49.879Z,91.35
2018-12-05T04:10:53.208Z,90.85
2018-12-05T04:16:56.631Z,91.91
2018-12-05T04:22:59.963Z,91.54
2018-12-05T04:29:03.314Z,91.99
2018-12-05T04:35:06.678Z,92.62
2018-12-05T04:41:10.050Z,93.16
2018-12-05T04:47:13.380Z,94.31
2018-12-05T04:53:16.703Z,94.40
2018-12-05T04:59:20.091Z,94.01
2018-12-05T05:05:23.521Z,93.39
2018-12-05T05:11:26.848Z,93.27
2018-12-05T05:17:30.207Z,94.15
2018-12-05T05:23:33.949Z,92.97
2018-12-05T05:29:37.282Z,93.09
2018-12-05T05:35:40.629Z,93.25
2018-12-05T05:41:43.980Z,93.47
2018-12-05T05:47:47.326Z,94.00
2018-12-05T05:53:50.689Z,93.29
2018-12-05T05:59:54.027Z,93.91
2018-12-05T06:05:57.355Z,94.05
2018-12-05T06:12:00.691Z,94.15
2018-12-05T06:18:04.023Z,93.32
2018-12-05T06:24:07.363Z,93.69
2018-12-05T06:30:11.105Z,92.99
2018-12-05T06:36:14.427Z,92.96
2018-12-05T06:42:17.755Z,92.45
2018-12-05T06:48:21.104Z,93.13
2018-12-05T06:54:24.461Z,93.47
2018-12-05T07:00:27.808Z,92.73
2018-12-05T07:06:31.138Z,92.75
2018-12-05T07:12:34.461Z,93.14
2018-12-05T07:18:37.842Z,93.64
2018-12-05T07:24:41.182Z,93.86
2018-12-05T07:30:44.559Z,93.18
2018-12-05T07:36:47.888Z,93.62
2018-12-05T07:42:51.244Z,93.59
2018-12-05T07:48:54.611Z,92.77
2018-12-05T07:54:57.982Z,93.87
2018-12-05T08:01:01.340Z,92.77
2018-12-05T08:07:04.692Z,92.32
2018-12-05T08:13:08.022Z,92.62
2018-12-05T08:19:11.367Z,93.74
2018-12-05T08:25:14.761Z,93.34
2018-12-05T08:31:18.230Z,92.92
2018-12-05T08:37:21.587Z,93.54
2018-12-05T08:43:24.941Z,92.78
2018-12-05T08:49:28.284Z,92.70
2018-12-05T08:55:31.625Z,92.02
2018-12-05T09:01:34.995Z,92.71
2018-12-05T09:07:38.348Z,91.80
2018-12-05T09:13:41.679Z,91.76
2018-12-05T09:19:45.034Z,92.66
2018-12-05T09:25:48.389Z,92.66
2018-12-05T09:31:51.734Z,91.87
2018-12-05T09:37:55.087Z,91.34
2018-12-05T09:43:58.405Z,91.93
2018-12-05T09:50:01.876Z,90.29
2018-12-05T09:56:05.302Z,89.89
2018-12-05T10:02:08.736Z,89.45
2018-12-05T10:08:12.077Z,89.53
2018-12-05T10:14:15.422Z,88.74
2018-12-05T10:20:18.751Z,87.84
2018-12-05T10:26:22.174Z,88.63
2018-12-05T10:32:25.521Z,87.57
2018-12-05T10:38:28.861Z,87.08
2018-12-05T10:44:32.213Z,86.25
2018-12-05T10:50:35.554Z,85.06
2018-12-05T10:56:38.911Z,85.11
2018-12-05T11:02:47.877Z,83.86
2018-12-05T11:08:56.797Z,85.11
2018-12-05T11:15:05.859Z,84.94
2018-12-05T11:21:14.655Z,84.25
2018-12-05T11:27:18.070Z,82.92
2018-12-05T11:33:21.422Z,82.94
2018-12-05T11:39:24.769Z,80.79
2018-12-05T11:45:28.182Z,79.89
2018-12-05T11:51:31.520Z,78.68
2018-12-05T11:57:35.010Z,79.22
2018-12-05T12:03:38.350Z,79.70
2018-12-05T12:09:41.770Z,79.19
2018-12-05T12:15:45.126Z,78.97
2018-12-05T12:21:48.460Z,77.28
2018-12-05T12:27:51.809Z,76.20
2018-12-05T12:33:55.138Z,75.91
2018-12-05T12:39:58.503Z,76.30
2018-12-05T12:46:01.841Z,75.28
2018-12-05T12:52:05.177Z,75.39
2018-12-05T12:58:08.528Z,75.24
2018-12-05T13:04:11.863Z,75.67
2018-12-05T13:10:15.215Z,75.47
2018-12-05T13:16:18.565Z,75.61
2018-12-05T13:22:21.910Z,74.27
2018-12-05T13:28:25.255Z,75.02
2018-12-05T13:34:28.633Z,75.92
2018-12-05T13:40:31.992Z,76.78
2018-12-05T13:46:35.342Z,77.40
2018-12-05T13:52:38.670Z,78.14
2018-12-05T13:58:41.967Z,78.92
2018-12-05T14:04:45.310Z,78.93
2018-12-05T14:10:48.649Z,79.90
2018-12-05T14:16:51.985Z,79.02
2018-12-05T14:22:55.294Z,80.47
2018-12-05T14:28:58.713Z,80.56
2018-12-05T14:35:02.007Z,80.26
2018-12-05T14:41:05.331Z,81.85
2018-12-05T14:47:08.666Z,82.23
2018-12-05T14:53:11.976Z,82.70
2018-12-05T14:59:15.308Z,83.78
2018-12-05T15:05:18.671Z,83.73
2018-12-05T15:11:21.990Z,82.69
2018-12-05T15:17:25.304Z,82.57
2018-12-05T15:23:28.666Z,83.37
2018-12-05T15:29:32.029Z,83.04
2018-12-05T15:35:35.406Z,83.91
2018-12-05T15:41:38.722Z,83.55
2018-12-05T15:47:42.050Z,83.80
2018-12-05T15:53:45.449Z,82.95
2018-12-05T15:59:48.766Z,84.13
2018-12-05T16:05:52.073Z,84.70
2018-12-05T16:11:55.399Z,84.81
2018-12-05T16:17:58.720Z,85.14
2018-12-05T16:24:02.039Z,85.54
2018-12-05T16:30:05.564Z,86.75
2018-12-05T16:36:11.194Z,86.62
2018-12-05T16:42:14.286Z,85.88
2018-12-05T16:48:17.621Z,86.98
2018-12-05T16:54:21.498Z,86.70
2018-12-05T17:00:24.811Z,86.08
2018-12-05T17:06:28.139Z,85.06
2018-12-05T17:12:31.461Z,85.76
2018-12-05T17:18:34.802Z,86.58
2018-12-05T17:24:38.116Z,86.70
2018-12-05T17:30:41.441Z,85.57
2018-12-05T17:36:44.776Z,85.54
2018-12-05T17:42:48.143Z,85.77
2018-12-05T17:48:51.456Z,85.44
2018-12-05T17:54:55.823Z,85.39
2018-12-05T18:00:59.149Z,85.50
2018-12-05T18:07:02.449Z,85.81
2018-12-05T18:13:05.761Z,85.63
2018-12-05T18:19:09.081Z,84.92
2018-12-05T18:25:12.410Z,85.08
2018-12-05T18:31:15.719Z,85.37
2018-12-05T18:37:19.052Z,84.97
2018-12-05T18:43:22.381Z,85.32
2018-12-05T18:49:25.686Z,84.46
2018-12-05T18:55:29.036Z,84.12
2018-12-05T19:01:32.367Z,84.74
2018-12-05T19:07:35.686Z,84.55
2018-12-05T19:20:15.145Z,84.74
2018-12-05T19:26:18.480Z,85.02
2018-12-05T19:32:21.806Z,84.67
2018-12-05T19:38:25.150Z,84.82
2018-12-05T19:44:28.479Z,84.70
2018-12-05T19:50:31.801Z,84.68
2018-12-05T19:56:35.295Z,84.61
2018-12-05T20:02:38.636Z,83.99
2018-12-05T20:08:41.955Z,83.83
2018-12-05T20:14:45.290Z,81.75
2018-12-05T20:20:48.630Z,82.15
2018-12-05T20:26:51.970Z,82.68
2018-12-05T20:32:55.328Z,82.60
2018-12-05T20:38:58.654Z,83.36
2018-12-05T20:45:02.011Z,83.75
2018-12-05T20:51:05.401Z,84.46
2018-12-05T20:57:08.732Z,84.99
2018-12-05T21:03:12.083Z,84.63
2018-12-05T21:09:15.436Z,85.21
2018-12-05T21:15:18.791Z,85.38
2018-12-05T21:21:22.130Z,85.82
2018-12-05T21:27:25.461Z,85.84
2018-12-05T21:33:28.783Z,85.74
2018-12-05T21:39:32.122Z,85.46
2018-12-05T21:45:35.512Z,86.01
2018-12-05T21:51:38.846Z,86.54
2018-12-05T21:57:42.198Z,85.95
2018-12-05T22:03:45.538Z,86.86
2018-12-05T22:09:48.901Z,86.60
2018-12-05T22:15:52.235Z,87.10
2018-12-05T22:21:55.558Z,86.10
2018-12-05T22:27:58.918Z,85.72
2018-12-05T22:34:02.295Z,86.52
2018-12-05T22:40:08.540Z,87.77
2018-12-05T22:46:11.872Z,87.18
2018-12-05T22:52:15.219Z,86.96
2018-12-05T22:58:18.539Z,87.03
2018-12-05T23:04:21.874Z,87.49
2018-12-05T23:10:25.224Z,87.31
2018-12-05T23:16:28.564Z,88.37
2018-12-05T23:22:31.895Z,87.25
2018-12-05T23:28:35.244Z,87.06
2018-12-05T23:34:38.578Z,87.34
2018-12-05T23:40:41.920Z,87.40
2018-12-05T23:46:45.250Z,87.82
2018-12-05T23:52:48.616Z,87.48
2018-12-05T23:58:52.242Z,87.83
